Terminal Aerodrome Forecast
Issued by NWS

Home | Current Version | Previous Version | Text Only | Print | Product List | Glossary On
Versions: 1 2 3 4 5 6 7 8 9 10 11 12 13 14 15 16 17 18 19 20 21
000
FTUS42 KRAH 171904 AAA
TAFINT
TAF AMD
KINT 171904Z 1719/1818 11006KT 6SM -RA BR OVC020
      TEMPO 1719/1721 3SM RA BR OVC012
     FM172100 VRB04KT 2SM -RADZ OVC011
     FM180000 VRB03KT 1 1/2SM -RADZ BR OVC006
     FM180600 VRB04KT P6SM BKN200
     FM181100 VRB03KT P6SM SCT100=

USA.gov is the U.S. government's official web portal to all federal, state and local government web resources and services.